createdAt,value
2023-04-16T00:00:09.111Z,201.99
2023-04-16T00:01:09.161Z,201.37
2023-04-16T00:02:09.240Z,201.74
2023-04-16T00:03:09.334Z,199.36
2023-04-16T00:04:09.375Z,199.02
2023-04-16T00:05:09.385Z,199.50
2023-04-16T00:06:09.255Z,202.26
2023-04-16T00:07:09.315Z,199.01
2023-04-16T00:08:09.310Z,198.94
2023-04-16T00:09:09.521Z,199.25
2023-04-16T00:10:09.341Z,200.89
2023-04-16T00:11:09.384Z,200.51
2023-04-16T00:12:09.401Z,202.74
2023-04-16T00:13:09.429Z,200.74
2023-04-16T00:14:09.419Z,200.80
2023-04-16T00:15:09.411Z,200.76
2023-04-16T00:16:09.915Z,199.70
2023-04-16T00:17:09.506Z,201.81
2023-04-16T00:18:09.435Z,202.50
2023-04-16T00:19:09.945Z,203.77
2023-04-16T00:20:09.434Z,202.35
2023-04-16T00:21:09.438Z,199.48
2023-04-16T00:22:09.420Z,202.17
2023-04-16T00:23:09.906Z,197.95
2023-04-16T00:24:09.418Z,197.98
2023-04-16T00:25:09.420Z,200.10
2023-04-16T00:26:09.420Z,196.08
2023-04-16T00:27:09.417Z,194.34
2023-04-16T00:28:11.104Z,196.69
2023-04-16T00:29:09.685Z,193.20
2023-04-16T00:30:09.428Z,196.23
2023-04-16T00:31:09.527Z,195.80
2023-04-16T00:32:09.429Z,196.65
2023-04-16T00:33:09.426Z,199.07
2023-04-16T00:34:09.438Z,197.76
2023-04-16T00:35:09.462Z,198.52
2023-04-16T00:36:09.520Z,199.03
2023-04-16T00:37:09.505Z,195.30
2023-04-16T00:38:09.543Z,196.92
2023-04-16T00:39:09.761Z,200.68
2023-04-16T00:40:09.581Z,198.35
2023-04-16T00:41:09.607Z,199.58
2023-04-16T00:42:09.657Z,198.04
2023-04-16T00:43:09.673Z,196.91
2023-04-16T00:44:09.709Z,200.84
2023-04-16T00:45:09.723Z,197.82
2023-04-16T00:46:09.802Z,196.96
2023-04-16T00:47:09.799Z,193.01
2023-04-16T00:48:09.835Z,195.66
2023-04-16T00:49:09.968Z,193.57
2023-04-16T00:50:09.903Z,192.35
2023-04-16T00:51:09.941Z,194.02
2023-04-16T00:52:09.962Z,193.90
2023-04-16T00:53:09.992Z,195.67
2023-04-16T00:54:10.027Z,194.32
2023-04-16T00:55:10.050Z,195.92
2023-04-16T00:56:10.066Z,196.70
2023-04-16T00:57:10.149Z,196.04
2023-04-16T00:58:10.109Z,197.28
2023-04-16T00:59:10.580Z,197.50
2023-04-16T01:00:10.162Z,197.72
2023-04-16T01:01:10.216Z,196.74
2023-04-16T01:02:10.369Z,197.23
2023-04-16T01:03:10.395Z,192.95
2023-04-16T01:04:10.381Z,193.79
2023-04-16T01:05:10.341Z,193.80
2023-04-16T01:06:10.330Z,195.14
2023-04-16T01:07:10.424Z,192.95
2023-04-16T01:08:10.368Z,193.62
2023-04-16T01:09:10.549Z,190.26
2023-04-16T01:10:10.384Z,190.25
2023-04-16T01:11:10.409Z,188.33
2023-04-16T01:12:10.443Z,187.86
2023-04-16T01:13:10.456Z,186.64
2023-04-16T01:14:10.481Z,183.36
2023-04-16T01:15:10.496Z,185.83
2023-04-16T01:16:10.573Z,185.21
2023-04-16T01:17:10.544Z,186.05
2023-04-16T01:18:10.581Z,185.33
2023-04-16T01:19:10.815Z,185.66
2023-04-16T01:20:10.609Z,182.95
2023-04-16T01:21:10.620Z,190.51
2023-04-16T01:22:10.645Z,187.44
2023-04-16T01:23:10.667Z,186.28
2023-04-16T01:24:10.693Z,187.39
2023-04-16T01:25:10.736Z,184.44
2023-04-16T01:26:10.736Z,186.34
2023-04-16T01:27:10.818Z,185.31
2023-04-16T01:28:10.777Z,187.84
2023-04-16T01:29:11.043Z,187.19
2023-04-16T01:30:10.841Z,187.00
2023-04-16T01:31:10.910Z,190.24
2023-04-16T01:32:10.886Z,184.52
2023-04-16T01:33:10.893Z,185.03
2023-04-16T01:34:10.924Z,186.20
2023-04-16T01:35:10.962Z,191.25
2023-04-16T01:36:11.003Z,187.87
2023-04-16T01:37:11.012Z,190.59
2023-04-16T01:38:11.032Z,189.04
2023-04-16T01:39:11.203Z,186.19
2023-04-16T01:40:11.069Z,188.29
2023-04-16T01:41:11.112Z,183.90
2023-04-16T01:42:11.174Z,181.03
2023-04-16T01:43:11.239Z,186.83
2023-04-16T01:44:11.283Z,186.39
2023-04-16T01:45:11.320Z,184.31
2023-04-16T01:46:11.377Z,185.47
2023-04-16T01:47:11.377Z,185.76
2023-04-16T01:48:11.395Z,187.77
2023-04-16T01:49:11.730Z,188.85
2023-04-16T01:50:11.481Z,189.23
2023-04-16T01:51:11.474Z,187.49
2023-04-16T01:52:11.502Z,184.85
2023-04-16T01:53:11.507Z,188.86
2023-04-16T01:54:11.557Z,187.41
2023-04-16T01:55:11.553Z,184.24
2023-04-16T01:56:11.576Z,187.40
2023-04-16T01:57:11.669Z,187.84
2023-04-16T01:58:11.628Z,191.64
2023-04-16T01:59:11.775Z,191.60
2023-04-16T02:00:11.662Z,190.63
2023-04-16T02:01:11.763Z,193.15
2023-04-16T02:02:11.908Z,192.55
2023-04-16T02:03:11.938Z,187.84
2023-04-16T02:04:11.797Z,190.91
2023-04-16T02:05:11.766Z,193.15
2023-04-16T02:06:11.793Z,193.29
2023-04-16T02:07:11.843Z,191.36
2023-04-16T02:08:11.842Z,192.22
2023-04-16T02:09:11.980Z,191.39
2023-04-16T02:10:11.902Z,191.13
2023-04-16T02:11:11.879Z,191.30
2023-04-16T02:12:11.880Z,191.42
2023-04-16T02:13:11.865Z,187.52
2023-04-16T02:14:11.874Z,191.39
2023-04-16T02:15:11.874Z,190.62
2023-04-16T02:16:11.886Z,191.70
2023-04-16T02:17:11.842Z,196.50
2023-04-16T02:18:11.852Z,197.65
2023-04-16T02:19:11.851Z,194.79
2023-04-16T02:20:11.838Z,197.13
2023-04-16T02:21:11.856Z,198.73
2023-04-16T02:22:11.821Z,194.36
2023-04-16T02:23:11.857Z,197.94
2023-04-16T02:24:11.819Z,196.84
2023-04-16T02:25:11.821Z,202.20
2023-04-16T02:26:11.793Z,201.24
2023-04-16T02:27:11.835Z,202.85
2023-04-16T02:28:11.869Z,205.37
2023-04-16T02:29:11.906Z,205.38
2023-04-16T02:30:11.771Z,202.45
2023-04-16T02:31:11.769Z,204.46
2023-04-16T02:32:11.883Z,204.32
2023-04-16T02:33:11.826Z,205.60
2023-04-16T02:34:11.810Z,205.56
2023-04-16T02:35:11.741Z,206.36
2023-04-16T02:36:11.888Z,205.51
2023-04-16T02:37:11.736Z,205.65
2023-04-16T02:38:11.807Z,206.34
2023-04-16T02:39:11.791Z,208.73
2023-04-16T02:40:11.829Z,209.86
2023-04-16T02:41:11.726Z,208.63
2023-04-16T02:42:11.805Z,207.60
2023-04-16T02:43:11.751Z,207.16
2023-04-16T02:44:11.817Z,203.71
2023-04-16T02:45:11.787Z,206.29
2023-04-16T02:46:11.826Z,210.58
2023-04-16T02:47:11.778Z,206.68
2023-04-16T02:48:11.736Z,208.16
2023-04-16T02:49:11.899Z,208.28
2023-04-16T02:50:11.668Z,208.51
2023-04-16T02:51:11.657Z,205.55
2023-04-16T02:52:12.810Z,204.15
2023-04-16T02:53:11.634Z,208.20
2023-04-16T02:54:11.637Z,207.99
2023-04-16T02:55:11.639Z,207.75
2023-04-16T02:56:11.611Z,207.57
2023-04-16T02:57:11.608Z,210.94
2023-04-16T02:58:11.607Z,210.85
2023-04-16T02:59:11.691Z,211.25
2023-04-16T03:00:11.585Z,209.26
2023-04-16T03:01:11.623Z,207.79
2023-04-16T03:02:11.628Z,210.13
2023-04-16T03:03:11.584Z,210.27
2023-04-16T03:04:11.639Z,210.59
2023-04-16T03:05:11.587Z,211.28
2023-04-16T03:06:11.556Z,212.70
2023-04-16T03:07:11.553Z,211.34
2023-04-16T03:08:11.550Z,211.15
2023-04-16T03:09:11.781Z,213.75
2023-04-16T03:10:11.547Z,214.35
2023-04-16T03:11:11.556Z,215.51
2023-04-16T03:12:11.558Z,213.09
2023-04-16T03:13:11.567Z,214.60
2023-04-16T03:14:11.530Z,215.38
2023-04-16T03:15:11.529Z,211.02
2023-04-16T03:16:11.614Z,212.23
2023-04-16T03:17:11.525Z,212.49
2023-04-16T03:18:11.528Z,212.79
2023-04-16T03:19:11.767Z,212.34
2023-04-16T03:20:11.586Z,215.75
2023-04-16T03:21:11.614Z,215.63
2023-04-16T03:22:11.629Z,215.96
2023-04-16T03:23:11.687Z,219.63
2023-04-16T03:24:11.686Z,219.25
2023-04-16T03:25:11.751Z,222.09
2023-04-16T03:26:11.817Z,222.29
2023-04-16T03:27:11.767Z,218.71
2023-04-16T03:28:11.938Z,223.40
2023-04-16T03:29:11.858Z,222.12
2023-04-16T03:30:11.834Z,221.14
2023-04-16T03:31:11.906Z,222.91
2023-04-16T03:32:11.862Z,226.32
2023-04-16T03:33:11.900Z,227.33
2023-04-16T03:34:11.935Z,226.71
2023-04-16T03:35:11.961Z,229.99
2023-04-16T03:36:11.966Z,229.03
2023-04-16T03:37:12.095Z,229.09
2023-04-16T03:38:11.989Z,228.26
2023-04-16T03:39:12.030Z,229.15
2023-04-16T03:40:11.958Z,228.71
2023-04-16T03:41:11.934Z,229.89
2023-04-16T03:42:11.939Z,232.78
2023-04-16T03:43:11.928Z,234.60
2023-04-16T03:44:11.921Z,228.43
2023-04-16T03:45:11.911Z,238.29
2023-04-16T03:46:11.948Z,234.51
2023-04-16T03:47:11.924Z,235.27
2023-04-16T03:48:11.897Z,230.32
2023-04-16T03:49:12.200Z,231.24
2023-04-16T03:50:11.888Z,232.38
2023-04-16T03:51:11.872Z,235.66
2023-04-16T03:52:11.863Z,233.55
2023-04-16T03:53:11.936Z,232.17
2023-04-16T03:54:11.898Z,229.60
2023-04-16T03:55:11.925Z,231.92
2023-04-16T03:56:11.965Z,227.53
2023-04-16T03:57:11.985Z,231.48
2023-04-16T03:58:12.024Z,231.38
2023-04-16T03:59:12.114Z,231.55
2023-04-16T04:00:12.095Z,227.98
2023-04-16T04:01:12.122Z,230.87
2023-04-16T04:02:12.223Z,231.59
2023-04-16T04:03:12.329Z,233.69
2023-04-16T04:04:12.230Z,234.17
2023-04-16T04:05:12.176Z,234.12
2023-04-16T04:06:12.278Z,230.86
2023-04-16T04:07:12.235Z,233.00
2023-04-16T04:08:12.263Z,232.72
2023-04-16T04:09:12.271Z,230.20
2023-04-16T04:10:12.318Z,229.48
2023-04-16T04:11:12.337Z,230.73
2023-04-16T04:12:12.354Z,230.48
2023-04-16T04:13:12.376Z,232.98
2023-04-16T04:14:12.397Z,231.62
2023-04-16T04:15:12.417Z,233.87
2023-04-16T04:16:12.490Z,233.55
2023-04-16T04:17:12.468Z,231.30
2023-04-16T04:18:12.461Z,231.45
2023-04-16T04:19:12.468Z,231.79
2023-04-16T04:20:12.512Z,233.51
2023-04-16T04:21:12.460Z,233.83
2023-04-16T04:22:12.460Z,239.20
2023-04-16T04:23:12.464Z,234.85
2023-04-16T04:24:12.465Z,235.18
2023-04-16T04:25:12.464Z,237.73
2023-04-16T04:26:12.511Z,238.49
2023-04-16T04:27:12.469Z,239.39
2023-04-16T04:28:12.470Z,238.01
2023-04-16T04:29:12.466Z,234.44
2023-04-16T04:30:12.472Z,234.14
2023-04-16T04:31:12.522Z,237.51
2023-04-16T04:32:12.480Z,234.04
2023-04-16T04:33:12.479Z,231.53
2023-04-16T04:34:12.475Z,231.71
2023-04-16T04:35:12.478Z,232.32
2023-04-16T04:36:12.484Z,232.81
2023-04-16T04:37:12.483Z,235.03
2023-04-16T04:38:14.883Z,236.58
2023-04-16T04:39:12.481Z,231.86
2023-04-16T04:40:12.468Z,232.17
2023-04-16T04:41:12.454Z,234.21
2023-04-16T04:42:12.461Z,234.33
2023-04-16T04:43:12.464Z,238.16
2023-04-16T04:44:12.436Z,241.81
2023-04-16T04:45:12.435Z,239.50
2023-04-16T04:46:12.498Z,239.50
2023-04-16T04:47:12.417Z,235.94
2023-04-16T04:48:12.421Z,236.10
2023-04-16T04:49:12.425Z,234.57
2023-04-16T04:50:12.412Z,235.53
2023-04-16T04:51:12.413Z,237.33
2023-04-16T04:52:12.407Z,236.69
2023-04-16T04:53:12.405Z,234.48
2023-04-16T04:54:12.412Z,233.60
2023-04-16T04:55:12.419Z,229.07
2023-04-16T04:56:13.196Z,225.74
2023-04-16T04:57:12.388Z,223.33
2023-04-16T04:58:12.388Z,226.55
2023-04-16T04:59:12.410Z,226.82
2023-04-16T05:00:12.383Z,229.34
2023-04-16T05:01:12.445Z,232.36
2023-04-16T05:02:12.425Z,227.15
2023-04-16T05:03:12.480Z,226.24
2023-04-16T05:04:12.418Z,230.50
2023-04-16T05:05:12.374Z,230.93
2023-04-16T05:06:12.357Z,229.06
2023-04-16T05:07:12.361Z,227.95
2023-04-16T05:08:12.355Z,228.11
2023-04-16T05:09:12.360Z,227.11
2023-04-16T05:10:12.340Z,229.17
2023-04-16T05:11:12.347Z,230.34
2023-04-16T05:12:12.322Z,224.35
2023-04-16T05:13:12.325Z,230.80
2023-04-16T05:14:12.339Z,233.37
2023-04-16T05:15:12.318Z,231.05
2023-04-16T05:16:12.334Z,233.25
2023-04-16T05:17:12.303Z,233.44
2023-04-16T05:18:12.312Z,230.70
2023-04-16T05:19:12.430Z,229.03
2023-04-16T05:20:12.289Z,234.07
2023-04-16T05:21:12.271Z,234.89
2023-04-16T05:22:12.329Z,232.74
2023-04-16T05:23:12.265Z,237.39
2023-04-16T05:24:14.395Z,238.05
2023-04-16T05:25:12.274Z,236.49
2023-04-16T05:26:12.299Z,237.68
2023-04-16T05:27:12.258Z,238.13
2023-04-16T05:28:12.254Z,239.38
2023-04-16T05:29:12.411Z,241.36
2023-04-16T05:30:12.254Z,243.18
2023-04-16T05:31:12.289Z,241.38
2023-04-16T05:32:12.258Z,241.74
2023-04-16T05:33:12.265Z,240.57
2023-04-16T05:34:12.269Z,242.64
2023-04-16T05:35:12.267Z,240.45
2023-04-16T05:36:12.328Z,243.53
2023-04-16T05:37:12.264Z,244.28
2023-04-16T05:38:12.304Z,239.80
2023-04-16T05:39:12.304Z,243.48
2023-04-16T05:40:12.304Z,242.82
2023-04-16T05:41:12.245Z,243.20
2023-04-16T05:42:12.223Z,247.43
2023-04-16T05:43:12.206Z,245.35
2023-04-16T05:44:12.278Z,250.00
2023-04-16T05:45:12.273Z,247.69
2023-04-16T05:46:12.366Z,248.02
2023-04-16T05:47:12.240Z,250.00
2023-04-16T05:48:12.156Z,246.83
2023-04-16T05:49:12.265Z,248.18
2023-04-16T05:50:12.244Z,248.18
2023-04-16T05:51:12.180Z,248.62
2023-04-16T05:52:12.130Z,248.28
2023-04-16T05:53:12.136Z,248.49
2023-04-16T05:54:12.124Z,248.46
2023-04-16T05:55:12.158Z,248.47
2023-04-16T05:56:12.117Z,250.63
2023-04-16T05:57:12.118Z,253.81
2023-04-16T05:58:12.105Z,249.00
2023-04-16T05:59:12.275Z,248.56
2023-04-16T06:00:12.098Z,249.99
2023-04-16T06:01:12.102Z,249.59
2023-04-16T06:02:12.295Z,245.09
2023-04-16T06:03:12.236Z,249.60
2023-04-16T06:04:12.243Z,248.56
2023-04-16T06:05:12.137Z,250.00
2023-04-16T06:06:12.115Z,247.28
2023-04-16T06:07:12.111Z,245.24
2023-04-16T06:08:12.087Z,244.92
2023-04-16T06:09:12.245Z,244.85
2023-04-16T06:10:12.117Z,245.09
2023-04-16T06:11:12.150Z,242.91
2023-04-16T06:12:12.230Z,248.04
2023-04-16T06:13:12.250Z,244.94
2023-04-16T06:14:12.357Z,247.74
2023-04-16T06:15:12.363Z,245.85
2023-04-16T06:16:12.346Z,242.79
2023-04-16T06:17:12.340Z,243.38
2023-04-16T06:18:12.407Z,244.55
2023-04-16T06:19:12.455Z,246.53
2023-04-16T06:20:12.420Z,244.74
2023-04-16T06:21:12.458Z,248.30
2023-04-16T06:22:12.479Z,247.41
2023-04-16T06:23:12.509Z,244.00
2023-04-16T06:24:12.548Z,241.35
2023-04-16T06:25:12.595Z,241.60
2023-04-16T06:26:12.603Z,241.85
2023-04-16T06:27:12.639Z,240.71
2023-04-16T06:28:12.658Z,240.45
2023-04-16T06:29:12.669Z,242.02
2023-04-16T06:30:12.692Z,240.83
2023-04-16T06:31:12.755Z,242.01
2023-04-16T06:32:12.732Z,240.26
2023-04-16T06:33:12.784Z,239.45
2023-04-16T06:34:12.778Z,241.10
2023-04-16T06:35:12.811Z,239.70
2023-04-16T06:36:12.825Z,238.41
2023-04-16T06:37:12.845Z,238.84
2023-04-16T06:38:12.880Z,239.73
2023-04-16T06:39:12.896Z,241.19
2023-04-16T06:40:12.932Z,242.86
2023-04-16T06:41:12.934Z,241.13
2023-04-16T06:42:12.960Z,237.01
2023-04-16T06:43:13.026Z,236.89
2023-04-16T06:44:12.997Z,240.48
2023-04-16T06:45:13.051Z,238.46
2023-04-16T06:46:13.056Z,234.67
2023-04-16T06:47:13.078Z,233.70
2023-04-16T06:48:13.101Z,232.57
2023-04-16T06:49:13.113Z,226.63
2023-04-16T06:50:13.128Z,228.00
2023-04-16T06:51:13.157Z,227.47
2023-04-16T06:52:13.183Z,227.76
2023-04-16T06:53:13.217Z,225.44
2023-04-16T06:54:13.228Z,226.18
2023-04-16T06:55:13.234Z,226.19
2023-04-16T06:56:13.233Z,225.88
2023-04-16T06:57:13.216Z,224.75
2023-04-16T06:58:13.231Z,226.13
2023-04-16T06:59:13.223Z,224.14
2023-04-16T07:00:13.254Z,220.69
2023-04-16T07:01:13.261Z,220.32
2023-04-16T07:02:13.382Z,221.59
2023-04-16T07:03:13.359Z,224.54
2023-04-16T07:04:13.255Z,224.84
2023-04-16T07:05:13.216Z,219.60
2023-04-16T07:06:13.206Z,219.53
2023-04-16T07:07:13.217Z,218.51
2023-04-16T07:08:13.195Z,217.18
2023-04-16T07:09:13.205Z,215.93
2023-04-16T07:10:13.239Z,214.81
2023-04-16T07:11:13.282Z,212.11
2023-04-16T07:12:13.300Z,214.74
2023-04-16T07:13:13.339Z,216.87
2023-04-16T07:14:13.339Z,215.17
2023-04-16T07:15:13.439Z,216.03
2023-04-16T07:16:13.453Z,211.09
2023-04-16T07:17:13.422Z,211.43
2023-04-16T07:18:13.487Z,211.10
2023-04-16T07:19:13.460Z,208.63
2023-04-16T07:20:13.490Z,207.97
2023-04-16T07:21:13.501Z,209.52
2023-04-16T07:22:13.531Z,207.38
2023-04-16T07:23:13.562Z,209.59
2023-04-16T07:24:13.581Z,207.72
2023-04-16T07:25:13.607Z,206.11
2023-04-16T07:26:13.643Z,204.94
2023-04-16T07:27:13.641Z,202.85
2023-04-16T07:28:13.679Z,198.45
2023-04-16T07:29:13.707Z,200.90
2023-04-16T07:30:13.740Z,198.14
2023-04-16T07:31:13.711Z,197.23
2023-04-16T07:32:15.296Z,196.59
2023-04-16T07:33:13.718Z,190.06
2023-04-16T07:34:13.719Z,187.99
2023-04-16T07:35:13.702Z,181.04
2023-04-16T07:36:13.689Z,179.09
2023-04-16T07:37:13.691Z,174.37
2023-04-16T07:38:13.689Z,171.72
2023-04-16T07:39:13.669Z,176.50
2023-04-16T07:40:13.691Z,172.83
2023-04-16T07:41:13.672Z,175.39
2023-04-16T07:42:13.674Z,175.04
2023-04-16T07:43:13.669Z,172.26
2023-04-16T07:44:13.683Z,169.90
2023-04-16T07:45:13.671Z,168.33
2023-04-16T07:46:13.821Z,167.37
2023-04-16T07:47:13.670Z,169.97
2023-04-16T07:48:13.665Z,168.86
2023-04-16T07:49:13.666Z,168.11
2023-04-16T07:50:13.671Z,171.19
2023-04-16T07:51:13.707Z,171.24
2023-04-16T07:52:13.728Z,172.72
2023-04-16T07:53:13.720Z,171.34
2023-04-16T07:54:13.763Z,171.18
2023-04-16T07:55:13.759Z,166.76
2023-04-16T07:56:13.790Z,163.98
2023-04-16T07:57:13.808Z,161.20
2023-04-16T07:58:13.847Z,163.39
2023-04-16T07:59:22.812Z,163.43
2023-04-16T08:00:14.898Z,162.95
2023-04-16T08:01:13.836Z,160.88
2023-04-16T08:02:13.918Z,159.54
2023-04-16T08:03:14.020Z,154.86
2023-04-16T08:04:14.039Z,159.04
2023-04-16T08:05:13.881Z,156.32
2023-04-16T08:06:13.835Z,157.53
2023-04-16T08:07:13.822Z,154.88
2023-04-16T08:08:13.824Z,160.46
2023-04-16T08:09:13.843Z,158.22
2023-04-16T08:10:13.818Z,156.94
2023-04-16T08:11:13.820Z,158.75
2023-04-16T08:12:13.814Z,155.51
2023-04-16T08:13:13.820Z,157.49
2023-04-16T08:14:13.822Z,156.12
2023-04-16T08:15:13.820Z,156.91
2023-04-16T08:16:13.863Z,157.42
2023-04-16T08:17:13.873Z,158.31
2023-04-16T08:18:13.903Z,157.36
2023-04-16T08:19:13.920Z,158.07
2023-04-16T08:20:16.906Z,157.28
2023-04-16T08:21:13.914Z,157.35
2023-04-16T08:22:13.910Z,157.70
2023-04-16T08:23:13.915Z,155.86
2023-04-16T08:24:13.913Z,159.36
2023-04-16T08:25:13.905Z,158.10
2023-04-16T08:26:13.917Z,162.17
2023-04-16T08:27:19.305Z,161.95
2023-04-16T08:28:14.905Z,162.00
2023-04-16T08:29:13.905Z,160.67
2023-04-16T08:30:13.906Z,162.76
2023-04-16T08:31:13.926Z,158.05
2023-04-16T08:32:13.890Z,161.42
2023-04-16T08:33:13.930Z,160.49
2023-04-16T08:34:13.895Z,159.78
2023-04-16T08:35:13.886Z,161.91
2023-04-16T08:36:13.897Z,159.50
2023-04-16T08:37:13.912Z,162.14
2023-04-16T08:38:13.894Z,160.35
2023-04-16T08:39:13.925Z,157.32
2023-04-16T08:40:13.898Z,160.78
2023-04-16T08:41:13.869Z,155.20
2023-04-16T08:42:13.864Z,154.05
2023-04-16T08:43:13.879Z,153.33
2023-04-16T08:44:13.876Z,149.72
2023-04-16T08:45:13.882Z,150.72
2023-04-16T08:46:13.929Z,151.40
2023-04-16T08:47:13.914Z,149.19
2023-04-16T08:48:13.934Z,150.50
2023-04-16T08:49:13.945Z,151.87
2023-04-16T08:50:13.967Z,147.75
2023-04-16T08:51:13.988Z,146.43
2023-04-16T08:52:14.003Z,146.32
2023-04-16T08:53:14.030Z,148.67
2023-04-16T08:54:14.066Z,147.84
2023-04-16T08:55:14.087Z,150.30
2023-04-16T08:56:14.098Z,146.40
2023-04-16T08:57:14.114Z,146.44
2023-04-16T08:58:14.124Z,143.59
2023-04-16T08:59:14.137Z,142.95
2023-04-16T09:00:14.180Z,142.19
2023-04-16T09:01:14.188Z,147.06
2023-04-16T09:02:14.241Z,141.99
2023-04-16T09:03:14.401Z,142.73
2023-04-16T09:04:14.494Z,141.77
2023-04-16T09:05:14.297Z,142.82
2023-04-16T09:06:14.346Z,142.43
2023-04-16T09:07:14.390Z,143.22
2023-04-16T09:08:14.446Z,146.57
2023-04-16T09:09:14.509Z,145.12
2023-04-16T09:10:14.542Z,136.48
2023-04-16T09:11:14.590Z,133.48
2023-04-16T09:12:14.605Z,132.11
2023-04-16T09:13:14.625Z,126.13
2023-04-16T09:14:14.645Z,130.62
2023-04-16T09:15:14.668Z,130.76
2023-04-16T09:16:14.754Z,137.30
2023-04-16T09:17:14.684Z,136.41
2023-04-16T09:18:14.711Z,138.80
2023-04-16T09:19:14.724Z,138.49
2023-04-16T09:20:14.737Z,139.61
2023-04-16T09:21:14.768Z,140.14
2023-04-16T09:22:14.778Z,140.33
2023-04-16T09:23:14.783Z,141.36
2023-04-16T09:24:14.804Z,131.21
2023-04-16T09:25:14.830Z,133.12
2023-04-16T09:26:14.840Z,136.35
2023-04-16T09:27:14.886Z,135.54
2023-04-16T09:28:14.961Z,139.90
2023-04-16T09:29:14.929Z,141.01
2023-04-16T09:30:14.956Z,142.52
2023-04-16T09:31:14.986Z,143.78
2023-04-16T09:32:15.098Z,143.78
2023-04-16T09:33:14.937Z,143.86
2023-04-16T09:34:15.009Z,134.44
2023-04-16T09:35:14.958Z,137.04
2023-04-16T09:36:15.043Z,138.04
2023-04-16T09:37:15.012Z,141.06
2023-04-16T09:38:15.013Z,134.52
2023-04-16T09:39:15.051Z,129.86
2023-04-16T09:40:15.048Z,129.24
2023-04-16T09:41:15.066Z,122.30
2023-04-16T09:42:15.101Z,118.78
2023-04-16T09:43:15.119Z,120.68
2023-04-16T09:44:15.098Z,121.35
2023-04-16T09:45:15.192Z,126.92
2023-04-16T09:46:15.336Z,118.42
2023-04-16T09:47:15.263Z,114.76
2023-04-16T09:48:15.180Z,120.75
2023-04-16T09:49:15.222Z,124.21
2023-04-16T09:50:17.283Z,125.06
2023-04-16T09:51:15.251Z,123.85
2023-04-16T09:52:15.642Z,138.47
2023-04-16T09:53:15.212Z,135.42
2023-04-16T09:54:15.302Z,137.90
2023-04-16T09:55:15.251Z,137.42
2023-04-16T09:56:15.236Z,128.27
2023-04-16T09:57:15.252Z,137.55
2023-04-16T09:58:15.166Z,138.74
2023-04-16T09:59:15.206Z,138.22
2023-04-16T10:00:15.152Z,137.70
2023-04-16T10:01:15.319Z,138.00
2023-04-16T10:02:16.380Z,148.62
2023-04-16T10:03:15.163Z,149.94
2023-04-16T10:04:15.200Z,154.33
2023-04-16T10:05:15.132Z,154.18
2023-04-16T10:06:15.105Z,156.82
2023-04-16T10:07:15.115Z,156.86
2023-04-16T10:08:15.031Z,164.04
2023-04-16T10:09:15.048Z,163.23
2023-04-16T10:10:15.012Z,165.07
2023-04-16T10:11:15.008Z,166.82
2023-04-16T10:12:15.002Z,164.65
2023-04-16T10:13:14.980Z,174.34
2023-04-16T10:14:14.973Z,175.25
2023-04-16T10:15:15.010Z,172.36
2023-04-16T10:16:15.013Z,166.96
2023-04-16T10:17:14.958Z,173.26
2023-04-16T10:18:14.969Z,180.83
2023-04-16T10:19:14.978Z,185.78
2023-04-16T10:20:16.737Z,186.99
2023-04-16T10:21:14.960Z,187.20
2023-04-16T10:22:14.965Z,189.21
2023-04-16T10:23:14.951Z,193.16
2023-04-16T10:24:14.959Z,196.40
2023-04-16T10:25:15.013Z,205.00
2023-04-16T10:26:15.024Z,218.57
2023-04-16T10:27:14.985Z,222.81
2023-04-16T10:28:14.932Z,218.68
2023-04-16T10:29:14.970Z,220.15
2023-04-16T10:30:15.005Z,232.22
2023-04-16T10:31:14.889Z,236.85
2023-04-16T10:32:14.929Z,250.00
2023-04-16T10:33:14.894Z,232.30
2023-04-16T10:34:14.855Z,230.49
2023-04-16T10:35:14.834Z,237.69
2023-04-16T10:36:14.849Z,227.93
2023-04-16T10:37:14.831Z,229.95
2023-04-16T10:38:14.817Z,235.17
2023-04-16T10:39:17.003Z,225.71
2023-04-16T10:40:14.918Z,218.79
2023-04-16T10:41:14.924Z,228.93
2023-04-16T10:42:14.948Z,231.45
2023-04-16T10:43:14.875Z,223.49
2023-04-16T10:44:15.015Z,215.55
2023-04-16T10:45:14.925Z,220.34
2023-04-16T10:46:14.915Z,219.28
2023-04-16T10:47:14.950Z,212.93
2023-04-16T10:48:14.884Z,213.85
2023-04-16T10:49:14.876Z,204.40
2023-04-16T10:50:14.844Z,213.19
2023-04-16T10:51:14.826Z,208.31
2023-04-16T10:52:14.888Z,197.73
2023-04-16T10:53:14.812Z,195.85
2023-04-16T10:54:14.819Z,189.36
2023-04-16T10:55:14.800Z,190.29
2023-04-16T10:56:14.803Z,180.57
2023-04-16T10:57:14.818Z,177.89
2023-04-16T10:58:14.800Z,181.85
2023-04-16T10:59:14.767Z,184.24
2023-04-16T11:00:14.769Z,181.08
2023-04-16T11:01:14.843Z,180.25
2023-04-16T11:02:14.865Z,172.95
2023-04-16T11:03:14.857Z,179.89
2023-04-16T11:04:14.827Z,190.41
2023-04-16T11:05:14.712Z,188.55
2023-04-16T11:06:14.728Z,194.08
2023-04-16T11:07:14.718Z,188.56
2023-04-16T11:08:14.696Z,179.70
2023-04-16T11:09:14.689Z,178.76
2023-04-16T11:10:14.672Z,195.34
2023-04-16T11:11:14.652Z,187.70
2023-04-16T11:12:14.656Z,193.91
2023-04-16T11:13:14.637Z,195.92
2023-04-16T11:14:14.634Z,193.60
2023-04-16T11:15:14.627Z,186.89
2023-04-16T11:16:14.703Z,186.56
2023-04-16T11:17:14.602Z,189.79
2023-04-16T11:18:14.603Z,179.93
2023-04-16T11:19:14.598Z,181.02
2023-04-16T11:20:18.987Z,181.18
2023-04-16T11:21:15.588Z,181.19
2023-04-16T11:22:14.571Z,179.41
2023-04-16T11:23:14.573Z,182.13
2023-04-16T11:24:14.563Z,179.59
2023-04-16T11:25:14.535Z,179.97
2023-04-16T11:26:14.517Z,177.54
2023-04-16T11:27:14.512Z,179.34
2023-04-16T11:28:14.506Z,178.09
2023-04-16T11:29:14.477Z,179.68
2023-04-16T11:30:14.534Z,181.24
2023-04-16T11:31:14.498Z,174.53
2023-04-16T11:32:14.504Z,177.87
2023-04-16T11:33:14.497Z,182.27
2023-04-16T11:34:14.453Z,183.43
2023-04-16T11:35:14.453Z,180.11
2023-04-16T11:36:14.438Z,179.78
2023-04-16T11:37:14.484Z,174.96
2023-04-16T11:38:14.457Z,176.84
2023-04-16T11:39:14.432Z,176.73
2023-04-16T11:40:14.423Z,178.23
2023-04-16T11:41:14.394Z,179.82
2023-04-16T11:42:14.446Z,183.24
2023-04-16T11:43:14.457Z,187.66
2023-04-16T11:44:14.460Z,186.11
2023-04-16T11:45:14.483Z,187.28
2023-04-16T11:46:26.871Z,190.98
2023-04-16T11:47:15.501Z,191.15
2023-04-16T11:48:14.512Z,191.08
2023-04-16T11:49:14.447Z,189.39
2023-04-16T11:50:14.455Z,190.12
2023-04-16T11:51:14.466Z,189.19
2023-04-16T11:52:14.440Z,181.22
2023-04-16T11:53:14.426Z,183.00
2023-04-16T11:54:14.410Z,185.41
2023-04-16T11:55:14.433Z,179.72
2023-04-16T11:56:14.409Z,178.31
2023-04-16T11:57:14.412Z,173.09
2023-04-16T11:58:14.414Z,168.12
2023-04-16T11:59:14.672Z,172.10
2023-04-16T12:00:14.363Z,172.26
2023-04-16T12:01:14.353Z,172.36
2023-04-16T12:02:14.390Z,168.20
2023-04-16T12:03:14.596Z,162.45
2023-04-16T12:04:14.489Z,158.19
2023-04-16T12:05:14.385Z,153.18
2023-04-16T12:06:14.280Z,151.13
2023-04-16T12:07:14.271Z,140.69
2023-04-16T12:08:14.278Z,139.86
2023-04-16T12:09:14.269Z,135.14
2023-04-16T12:10:14.279Z,132.87
2023-04-16T12:11:14.257Z,129.77
2023-04-16T12:12:14.249Z,130.28
2023-04-16T12:13:14.251Z,133.31
2023-04-16T12:14:14.241Z,132.41
2023-04-16T12:15:14.233Z,126.47
2023-04-16T12:16:14.305Z,121.92
2023-04-16T12:17:14.245Z,116.52
2023-04-16T12:18:14.223Z,114.22
2023-04-16T12:19:14.225Z,110.02
2023-04-16T12:20:14.224Z,111.21
2023-04-16T12:21:14.216Z,110.15
2023-04-16T12:22:14.209Z,114.46
2023-04-16T12:23:14.232Z,111.68
2023-04-16T12:24:14.202Z,110.16
2023-04-16T12:25:14.214Z,114.48
2023-04-16T12:26:14.213Z,114.49
2023-04-16T12:27:14.195Z,113.91
2023-04-16T12:28:14.190Z,114.00